METAR ET TAF INFORMATION
METAR FOR KDLO
ADDS - METARS form results

(1640 UTC 20 August 2019)
Data provider http://aviationweather.gov/metar/data/
 
METAR text: KDLO 201635Z AUTO 00000KT 10SM CLR 21/12 A2998 RMK AO2 T02100124
Conditions at: KDLO (DELANO , CA, US) observed 1635 UTC 20 August 2019
Temperature: 21.0°C (70°F)
Dewpoint: 12.4°C (54°F) [RH = 58%]
Pressure (altimeter): 29.98 inches Hg (1015.3 mb)
Winds: calm
Visibility: 10 or more miles (16+ km)
Ceiling: at least 12,000 feet AGL
Clouds: sky clear below 12,000 feet AGL
Weather: automated observation with no human augmentation;
there may or may not be significant weather present at this time

METAR text: KDLO 201615Z AUTO 29003KT 10SM CLR 20/12 A2998 RMK AO2 T02020122
Conditions at: KDLO (DELANO , CA, US) observed 1615 UTC 20 August 2019
Temperature: 20.2°C (68°F)
Dewpoint: 12.2°C (54°F) [RH = 60%]
Pressure (altimeter): 29.98 inches Hg (1015.3 mb)
Winds: from the WNW (290 degrees) at 3 MPH (3 knots; 1.5 m/s)
Visibility: 10 or more miles (16+ km)
Ceiling: at least 12,000 feet AGL
Clouds: sky clear below 12,000 feet AGL
Weather: automated observation with no human augmentation;
there may or may not be significant weather present at this time

METAR text: KDLO 201555Z AUTO 28004KT 10SM CLR 20/12 A2998 RMK AO2 T01980120
Conditions at: KDLO (DELANO , CA, US) observed 1555 UTC 20 August 2019
Temperature: 19.8°C (68°F)
Dewpoint: 12.0°C (54°F) [RH = 61%]
Pressure (altimeter): 29.98 inches Hg (1015.3 mb)
Winds: from the W (280 degrees) at 5 MPH (4 knots; 2.1 m/s)
Visibility: 10 or more miles (16+ km)
Ceiling: at least 12,000 feet AGL
Clouds: sky clear below 12,000 feet AGL
Weather: automated observation with no human augmentation;
there may or may not be significant weather present at this time

 AÉROPORT DE AÉROPORT

 INFORMATIONS DE PISTE
Piste 14 Longueur de la piste 5650 ft Largeur de la piste 75 ft
Élévation de la piste 313 ft Seuil de la piste déplacés 1640 ft Runway heading 159
Piste 32 Longueur de la piste 5650 ft Largeur de la piste 75 ft
Élévation de la piste 311 ft Seuil de la piste déplacés 0 ft Runway heading 339

 AÉROPORT FRÉQUENCES
Type A/D Nom BAKERSFIEL Féquence 118.9 MHZ
Type AWOS Nom AWOS 3 Féquence 119.55 MHZ
Type UNIC Nom CTAF/UNICO Féquence 122.8 MHZ

 SIDA DE NAVIGATION



Powered by Virtual Airlines Manager [v2.6.2]